Time;durP1;ratioP1;P1;durP2;ratioP2;P2;SDS_P1;SDS_P2;PMS_P1;PMS_P2;Temp;Humidity;BMP_temperature;BMP_pressure;BME280_temperature;BME280_humidity;BME280_pressure;Samples;Min_cycle;Max_cycle;Signal;HPM_P1;HPM_P2
2021/06/17 00:00:08;;;;;;;5.15;4.32;;;26.40;71.50;26.00;99037.00;;;;337609;28;83737;-91
2021/06/17 00:00:26;;;;;;;5.47;4.90;;;26.40;71.50;26.10;99044.00;;;;339934;28;91753;-91
2021/06/17 00:00:38;;;;;;;5.65;5.05;;;26.40;71.60;26.20;99049.00;;;;337650;28;83458;-91
2021/06/17 00:00:50;;;;;;;5.93;4.95;;;26.40;71.70;26.00;99048.00;;;;337236;28;90620;-91
2021/06/17 00:01:02;;;;;;;6.28;5.25;;;26.40;71.70;26.10;99050.00;;;;336474;28;83688;-91
2021/06/17 00:01:14;;;;;;;5.68;5.07;;;26.40;71.60;26.20;99050.00;;;;337470;28;92738;-91
2021/06/17 00:01:26;;;;;;;5.70;5.10;;;26.40;71.90;26.10;99048.00;;;;337733;28;84892;-91
2021/06/17 00:01:38;;;;;;;6.80;5.13;;;26.40;71.60;26.10;99044.00;;;;338814;28;90510;-91
2021/06/17 00:01:50;;;;;;;8.07;5.55;;;26.40;71.50;26.20;99048.00;;;;337609;28;83753;-90
2021/06/17 00:02:05;;;;;;;9.25;6.00;;;26.40;71.50;26.20;99053.00;;;;336075;28;93429;-91
2021/06/17 00:02:17;;;;;;;7.65;6.00;;;26.40;71.50;26.20;99051.00;;;;340414;28;83658;-92
2021/06/17 00:02:28;;;;;;;8.05;6.00;;;26.40;71.50;26.20;99050.00;;;;338717;28;91633;-91
2021/06/17 00:02:40;;;;;;;8.18;5.88;;;26.40;71.40;26.10;99043.00;;;;339345;28;85081;-91
2021/06/17 00:02:54;;;;;;;9.13;6.38;;;26.40;71.30;26.20;99047.00;;;;337323;28;91675;-90
2021/06/17 00:03:06;;;;;;;9.70;6.43;;;26.40;72.00;26.10;99056.00;;;;340217;28;84800;-91
2021/06/17 00:03:18;;;;;;;8.75;6.18;;;26.40;71.30;26.10;99049.00;;;;340183;28;88441;-91
2021/06/17 00:03:30;;;;;;;10.65;6.60;;;26.30;71.90;26.00;99056.00;;;;341673;28;84855;-91
2021/06/17 00:03:42;;;;;;;12.18;7.25;;;26.40;71.40;25.90;99058.00;;;;338858;28;88072;-91
2021/06/17 00:03:54;;;;;;;10.23;7.18;;;26.30;71.40;25.90;99050.00;;;;341912;28;83623;-90
2021/06/17 00:04:06;;;;;;;8.70;6.57;;;26.30;71.40;26.00;99057.00;;;;338626;28;92659;-91
2021/06/17 00:04:17;;;;;;;7.68;6.05;;;26.30;71.40;26.00;99054.00;;;;341765;28;84388;-91
2021/06/17 00:04:29;;;;;;;8.52;6.32;;;26.30;71.40;26.00;99057.00;;;;337339;28;91762;-91
2021/06/17 00:04:41;;;;;;;8.82;6.88;;;26.30;71.40;26.20;99050.00;;;;339053;28;83637;-90
2021/06/17 00:04:53;;;;;;;8.73;7.00;;;26.30;71.40;26.10;99056.00;;;;337995;28;90681;-90
2021/06/17 00:05:08;;;;;;;9.27;7.13;;;26.30;71.70;26.10;99057.00;;;;338980;28;83499;-91
2021/06/17 00:05:20;;;;;;;10.57;7.45;;;26.30;71.60;26.00;99051.00;;;;337355;28;92081;-91
2021/06/17 00:05:33;;;;;;;11.60;7.70;;;26.30;71.20;26.00;99052.00;;;;340336;28;83681;-91
2021/06/17 00:05:46;;;;;;;10.63;7.55;;;26.30;71.20;26.00;99052.00;;;;335894;28;90974;-91
2021/06/17 00:05:58;;;;;;;10.32;7.00;;;26.30;71.20;26.10;99056.00;;;;339014;28;83035;-90
2021/06/17 00:06:10;;;;;;;10.25;6.57;;;26.30;71.20;25.90;99059.00;;;;334654;29;92860;-91
2021/06/17 00:06:22;;;;;;;8.15;6.20;;;26.40;71.20;26.00;99052.00;;;;336363;28;84645;-90
2021/06/17 00:06:33;;;;;;;10.55;6.68;;;26.40;71.30;25.90;99053.00;;;;336058;28;88376;-91
2021/06/17 00:06:45;;;;;;;12.23;6.85;;;26.30;71.30;25.90;99047.00;;;;337766;28;83608;-91
2021/06/17 00:06:57;;;;;;;12.48;6.68;;;26.30;71.30;25.90;99051.00;;;;338490;28;90686;-90
2021/06/17 00:07:09;;;;;;;8.30;6.75;;;26.30;71.30;25.90;99051.00;;;;340601;28;83436;-91
2021/06/17 00:07:21;;;;;;;8.63;6.68;;;26.30;71.30;25.80;99053.00;;;;339150;28;87953;-91
2021/06/17 00:07:33;;;;;;;10.65;6.55;;;26.30;71.20;26.00;99056.00;;;;337926;28;84141;-91
2021/06/17 00:07:46;;;;;;;11.18;6.63;;;26.30;71.30;26.10;99053.00;;;;339944;28;88284;-92
2021/06/17 00:07:58;;;;;;;11.32;6.70;;;26.30;71.30;26.00;99060.00;;;;339435;28;82855;-91
2021/06/17 00:08:10;;;;;;;10.43;6.78;;;26.30;71.30;26.00;99053.00;;;;339534;28;90097;-90
2021/06/17 00:08:22;;;;;;;10.23;6.47;;;26.30;71.20;26.00;99058.00;;;;339354;28;83562;-91
2021/06/17 00:08:34;;;;;;;8.75;6.20;;;26.30;71.20;25.90;99052.00;;;;340203;28;91043;-91
2021/06/17 00:08:46;;;;;;;10.50;6.43;;;26.30;71.20;26.00;99054.00;;;;339314;28;83466;-91
2021/06/17 00:08:58;;;;;;;9.88;6.68;;;26.30;71.20;25.90;99055.00;;;;337615;28;91196;-91
2021/06/17 00:09:09;;;;;;;8.40;6.47;;;26.30;71.10;25.90;99057.00;;;;340772;28;82374;-91
2021/06/17 00:09:21;;;;;;;7.88;6.07;;;26.30;71.00;25.90;99057.00;;;;337748;28;92139;-92
2021/06/17 00:09:33;;;;;;;8.63;5.93;;;26.30;71.00;26.00;99060.00;;;;336757;28;83435;-91
2021/06/17 00:09:46;;;;;;;8.95;6.35;;;26.30;71.20;26.00;99060.00;;;;335141;29;90699;-91
2021/06/17 00:09:58;;;;;;;9.35;6.70;;;26.30;71.30;26.00;99058.00;;;;336802;28;82409;-91
2021/06/17 00:10:26;;;;;;;9.85;6.38;;;26.30;71.10;26.10;99060.00;;;;334961;29;93711;-91
2021/06/17 00:10:45;;;;;;;9.27;5.85;;;26.30;71.00;26.00;99058.00;;;;339415;28;83867;-91
2021/06/17 00:10:56;;;;;;;7.20;5.57;;;26.30;71.10;26.00;99063.00;;;;338957;28;91990;-90
2021/06/17 00:11:08;;;;;;;8.05;6.05;;;26.30;71.00;26.00;99059.00;;;;340336;28;84530;-89
2021/06/17 00:11:20;;;;;;;8.73;6.00;;;26.30;70.90;26.00;99053.00;;;;339175;28;91025;-87
2021/06/17 00:11:32;;;;;;;7.40;5.53;;;26.20;70.90;25.90;99062.00;;;;343596;28;83697;-90
2021/06/17 00:11:44;;;;;;;6.90;5.25;;;26.30;71.00;25.80;99061.00;;;;341665;28;90259;-91
2021/06/17 00:12:02;;;;;;;6.15;5.53;;;26.30;70.90;25.70;99064.00;;;;339729;28;84068;-89
2021/06/17 00:12:26;;;;;;;7.40;5.75;;;26.20;70.80;25.90;99062.00;;;;340465;28;90807;-88
2021/06/17 00:12:38;;;;;;;6.90;5.05;;;26.20;71.60;26.00;99073.00;;;;341177;28;84884;-90
2021/06/17 00:12:50;;;;;;;6.90;4.90;;;26.20;71.00;25.90;99065.00;;;;339289;28;89474;-89
2021/06/17 00:13:06;;;;;;;6.47;5.00;;;26.20;71.00;25.80;99067.00;;;;342412;28;82336;-89
2021/06/17 00:13:22;;;;;;;6.85;5.18;;;26.20;71.00;25.90;99067.00;;;;339313;28;90687;-89
2021/06/17 00:13:36;;;;;;;7.63;5.53;;;26.20;71.10;26.00;99069.00;;;;340744;28;83704;-90
2021/06/17 00:13:48;;;;;;;6.63;5.40;;;26.20;71.00;25.90;99068.00;;;;339929;28;90972;-89
2021/06/17 00:14:00;;;;;;;7.45;5.63;;;26.10;70.90;25.90;99066.00;;;;337086;29;83669;-89
2021/06/17 00:14:11;;;;;;;8.18;5.32;;;26.10;71.00;25.90;99069.00;;;;341733;28;91969;-90
2021/06/17 00:14:23;;;;;;;8.02;5.25;;;26.10;71.20;25.90;99059.00;;;;338666;28;82399;-90
2021/06/17 00:14:35;;;;;;;6.28;4.88;;;26.10;71.20;25.80;99053.00;;;;340481;28;90843;-90
2021/06/17 00:14:47;;;;;;;6.15;5.35;;;26.10;71.20;25.70;99056.00;;;;342212;28;85590;-87
2021/06/17 00:14:59;;;;;;;6.63;5.68;;;26.10;71.40;25.70;99064.00;;;;340524;28;88861;-88
2021/06/17 00:15:12;;;;;;;7.45;6.03;;;26.10;71.30;25.70;99056.00;;;;339731;28;83735;-90
2021/06/17 00:15:25;;;;;;;8.40;6.30;;;26.10;71.30;25.80;99052.00;;;;339266;28;91136;-90
2021/06/17 00:15:37;;;;;;;7.80;6.10;;;26.10;71.30;25.90;99052.00;;;;339375;28;84774;-89
2021/06/17 00:15:51;;;;;;;6.72;5.65;;;26.10;71.40;25.90;99055.00;;;;339159;28;91112;-90
2021/06/17 00:16:04;;;;;;;5.93;5.30;;;26.10;71.30;25.90;99064.00;;;;340936;28;84119;-90
2021/06/17 00:16:16;;;;;;;6.53;5.15;;;26.10;71.30;25.90;99055.00;;;;336786;28;88461;-90
2021/06/17 00:16:28;;;;;;;8.20;5.65;;;26.10;71.90;25.80;99057.00;;;;339813;28;83558;-88
2021/06/17 00:16:40;;;;;;;9.45;6.55;;;26.10;71.40;25.90;99052.00;;;;340110;28;92201;-89
2021/06/17 00:16:53;;;;;;;9.82;7.53;;;26.10;71.40;25.80;99065.00;;;;342521;28;83613;-89
2021/06/17 00:17:18;;;;;;;10.48;7.53;;;26.10;71.40;25.60;99060.00;;;;337772;28;91958;-89
2021/06/17 00:17:30;;;;;;;9.07;6.60;;;26.00;71.40;25.70;99062.00;;;;339615;28;83694;-90
2021/06/17 00:17:43;;;;;;;8.57;6.80;;;26.00;71.30;25.70;99059.00;;;;341031;28;91034;-91
2021/06/17 00:17:55;;;;;;;9.60;7.22;;;26.00;71.30;25.70;99055.00;;;;338466;28;83546;-92
2021/06/17 00:18:07;;;;;;;11.05;7.80;;;26.00;71.10;25.70;99048.00;;;;340602;28;90617;-90
2021/06/17 00:18:19;;;;;;;12.20;8.18;;;26.00;71.80;25.70;99053.00;;;;338060;28;84006;-92
2021/06/17 00:18:31;;;;;;;11.10;8.50;;;26.00;71.30;25.70;99052.00;;;;340261;28;90763;-91
2021/06/17 00:18:44;;;;;;;9.65;8.40;;;26.00;71.30;25.80;99047.00;;;;340687;28;82463;-91
2021/06/17 00:18:55;;;;;;;11.63;9.05;;;26.00;71.40;25.80;99053.00;;;;340107;28;91694;-91
2021/06/17 00:19:07;;;;;;;11.85;9.00;;;26.00;71.40;25.80;99042.00;;;;340562;28;85061;-92
2021/06/17 00:19:19;;;;;;;13.73;9.48;;;26.00;71.30;25.80;99042.00;;;;340132;28;89107;-91
2021/06/17 00:19:31;;;;;;;13.07;9.70;;;26.00;71.30;25.70;99048.00;;;;341881;28;83786;-91
2021/06/17 00:19:43;;;;;;;13.68;9.80;;;26.00;71.30;25.70;99043.00;;;;342185;28;92512;-92
2021/06/17 00:19:55;;;;;;;13.05;9.75;;;26.00;71.30;25.70;99049.00;;;;341158;28;83722;-91
2021/06/17 00:20:07;;;;;;;13.77;10.63;;;26.00;71.40;25.70;99037.00;;;;339906;28;90778;-91
2021/06/17 00:20:20;;;;;;;13.45;11.10;;;26.00;71.50;25.80;99042.00;;;;338961;28;84004;-91
2021/06/17 00:20:32;;;;;;;13.02;11.00;;;26.00;71.40;25.90;99048.00;;;;336652;28;87943;-92
2021/06/17 00:20:44;;;;;;;13.55;11.57;;;26.00;71.50;25.80;99039.00;;;;337537;28;87625;-92
2021/06/17 00:20:56;;;;;;;14.88;11.60;;;26.00;71.50;25.80;99041.00;;;;337316;28;90245;-92
2021/06/17 00:21:08;;;;;;;16.25;11.70;;;26.00;71.50;25.80;99035.00;;;;335019;29;87854;-91
2021/06/17 00:21:20;;;;;;;15.95;11.90;;;26.00;71.60;25.70;99041.00;;;;334717;29;92313;-91
2021/06/17 00:21:32;;;;;;;15.48;12.38;;;26.00;71.60;25.80;99050.00;;;;336272;28;86057;-92
2021/06/17 00:21:44;;;;;;;14.73;11.95;;;26.00;71.40;25.70;99038.00;;;;336063;28;92411;-92
2021/06/17 00:21:56;;;;;;;14.73;11.43;;;26.00;71.60;25.80;99048.00;;;;337540;28;88082;-91
2021/06/17 00:22:08;;;;;;;13.10;11.20;;;26.00;71.50;25.80;99031.00;;;;336152;28;88294;-91
2021/06/17 00:22:21;;;;;;;11.05;9.82;;;26.00;71.50;25.90;99034.00;;;;335067;29;86844;-92
2021/06/17 00:22:33;;;;;;;10.00;8.52;;;26.00;71.40;25.90;99027.00;;;;337436;28;92707;-92
2021/06/17 00:22:45;;;;;;;9.32;7.85;;;26.00;71.30;26.00;99035.00;;;;337447;28;85873;-91
2021/06/17 00:22:57;;;;;;;9.57;7.90;;;26.00;72.00;25.90;99038.00;;;;334280;29;91393;-92
2021/06/17 00:23:09;;;;;;;9.30;7.70;;;26.00;71.30;26.00;99032.00;;;;333871;29;83983;-92
2021/06/17 00:23:22;;;;;;;8.55;7.30;;;26.10;71.40;25.90;99037.00;;;;333311;29;93118;-92
2021/06/17 00:23:34;;;;;;;8.05;7.10;;;26.00;71.20;25.90;99029.00;;;;336413;28;84779;-92
2021/06/17 00:23:46;;;;;;;7.43;6.63;;;26.10;71.30;26.00;99038.00;;;;337053;28;91832;-92
2021/06/17 00:23:58;;;;;;;11.73;6.60;;;26.10;71.30;25.80;99031.00;;;;335107;29;83837;-92
2021/06/17 00:24:10;;;;;;;11.57;6.88;;;26.10;71.30;25.80;99033.00;;;;337433;28;92087;-92
2021/06/17 00:24:22;;;;;;;8.35;7.22;;;26.00;71.20;25.80;99033.00;;;;337710;28;84429;-91
2021/06/17 00:24:34;;;;;;;7.85;6.82;;;26.00;71.80;25.90;99038.00;;;;337401;28;92031;-91
2021/06/17 00:24:45;;;;;;;7.63;6.63;;;26.10;71.30;25.90;99037.00;;;;336413;28;83817;-91
2021/06/17 00:24:57;;;;;;;7.72;6.40;;;26.10;71.40;25.70;99041.00;;;;334754;29;91207;-92
2021/06/17 00:25:10;;;;;;;7.57;6.40;;;26.10;71.30;25.80;99040.00;;;;334935;29;84921;-91
2021/06/17 00:25:23;;;;;;;7.65;6.18;;;26.00;71.20;25.90;99042.00;;;;337283;28;92830;-91
2021/06/17 00:25:35;;;;;;;7.57;6.18;;;26.10;71.30;25.90;99035.00;;;;337328;28;84660;-91
2021/06/17 00:25:47;;;;;;;7.93;6.03;;;26.10;71.40;25.90;99042.00;;;;337571;28;90915;-91
2021/06/17 00:25:59;;;;;;;6.97;5.50;;;26.10;71.30;25.80;99037.00;;;;337439;28;84666;-91
2021/06/17 00:26:11;;;;;;;6.28;5.28;;;26.10;71.30;25.70;99038.00;;;;336453;28;91681;-92
2021/06/17 00:26:23;;;;;;;5.90;5.13;;;26.10;71.30;25.70;99037.00;;;;340316;28;83843;-91
2021/06/17 00:26:35;;;;;;;5.95;5.25;;;26.00;71.20;25.70;99041.00;;;;338781;28;89058;-92
2021/06/17 00:26:47;;;;;;;6.65;5.18;;;26.10;71.30;25.70;99052.00;;;;338985;28;84588;-91
2021/06/17 00:26:59;;;;;;;8.50;5.57;;;26.10;71.20;25.80;99054.00;;;;338695;28;90650;-91
2021/06/17 00:27:11;;;;;;;8.05;5.30;;;26.10;71.30;25.80;99050.00;;;;340474;28;82376;-92
2021/06/17 00:27:23;;;;;;;6.95;5.40;;;26.00;71.30;25.90;99057.00;;;;337161;28;92880;-91
2021/06/17 00:27:35;;;;;;;5.75;5.03;;;26.00;71.90;25.90;99052.00;;;;336333;28;83685;-91
2021/06/17 00:27:46;;;;;;;5.63;4.55;;;26.10;71.30;25.90;99057.00;;;;338693;28;90936;-92
2021/06/17 00:27:58;;;;;;;5.38;4.25;;;26.00;71.70;25.90;99051.00;;;;335141;29;85055;-91
2021/06/17 00:28:10;;;;;;;5.85;4.35;;;26.10;71.30;25.90;99051.00;;;;337418;28;89490;-92
2021/06/17 00:28:24;;;;;;;6.32;4.70;;;26.10;71.30;25.80;99053.00;;;;336359;28;83349;-91
2021/06/17 00:28:36;;;;;;;5.72;4.70;;;26.00;71.40;25.90;99050.00;;;;338058;28;90753;-92
2021/06/17 00:28:48;;;;;;;6.60;5.22;;;26.00;71.30;26.00;99050.00;;;;337543;28;84797;-92
2021/06/17 00:29:00;;;;;;;6.70;4.93;;;26.00;71.30;25.90;99049.00;;;;337443;28;88975;-92
2021/06/17 00:29:11;;;;;;;7.13;4.95;;;26.00;71.30;25.90;99059.00;;;;339141;28;82559;-92
2021/06/17 00:29:23;;;;;;;5.97;4.75;;;26.00;71.20;25.90;99059.00;;;;334550;29;92976;-92
2021/06/17 00:29:37;;;;;;;5.93;4.47;;;26.00;71.20;25.80;99049.00;;;;336422;28;83577;-92
2021/06/17 00:29:48;;;;;;;5.22;4.30;;;26.00;71.30;25.80;99056.00;;;;334746;29;90322;-91
2021/06/17 00:30:00;;;;;;;5.30;4.13;;;26.00;71.20;25.70;99051.00;;;;334781;29;83775;-92
2021/06/17 00:30:13;;;;;;;4.60;4.13;;;26.00;71.30;25.80;99058.00;;;;336087;28;90546;-92
2021/06/17 00:30:26;;;;;;;4.32;3.92;;;26.00;71.30;26.00;99057.00;;;;336209;28;83576;-91
2021/06/17 00:30:38;;;;;;;4.35;3.95;;;26.00;71.40;25.80;99060.00;;;;336161;28;92954;-92
2021/06/17 00:30:51;;;;;;;4.47;4.07;;;26.00;71.30;25.70;99062.00;;;;336220;28;85131;-91
2021/06/17 00:31:03;;;;;;;4.57;4.18;;;26.00;71.40;25.80;99060.00;;;;337409;28;91573;-92
2021/06/17 00:31:15;;;;;;;4.65;4.25;;;26.00;71.40;25.80;99058.00;;;;336380;28;83825;-92
2021/06/17 00:31:27;;;;;;;4.60;4.20;;;26.00;71.40;25.80;99054.00;;;;334690;29;92536;-91
2021/06/17 00:31:39;;;;;;;5.13;4.32;;;26.00;71.30;25.80;99052.00;;;;336712;28;82673;-92
2021/06/17 00:31:51;;;;;;;5.38;4.03;;;26.00;71.30;25.90;99060.00;;;;338575;28;92083;-92
2021/06/17 00:32:08;;;;;;;4.30;3.67;;;26.00;71.30;26.00;99060.00;;;;337683;28;84226;-92
2021/06/17 00:32:19;;;;;;;5.55;3.92;;;26.00;71.50;26.00;99061.00;;;;332070;29;92859;-92
2021/06/17 00:32:31;;;;;;;6.03;4.30;;;26.00;71.50;25.80;99054.00;;;;335161;29;83748;-92
2021/06/17 00:32:43;;;;;;;4.72;4.30;;;26.00;71.40;25.80;99058.00;;;;337844;28;92088;-91
2021/06/17 00:32:55;;;;;;;4.90;4.28;;;26.00;71.50;25.90;99054.00;;;;337596;28;83478;-92
2021/06/17 00:33:07;;;;;;;4.95;4.30;;;26.00;71.50;25.90;99063.00;;;;340026;28;91947;-92
2021/06/17 00:33:19;;;;;;;4.60;4.15;;;26.00;71.40;25.80;99057.00;;;;336429;28;83682;-92
2021/06/17 00:33:32;;;;;;;4.43;4.03;;;26.00;71.40;25.90;99057.00;;;;337101;28;92070;-92
2021/06/17 00:33:44;;;;;;;5.47;4.07;;;26.00;71.40;25.90;99064.00;;;;337775;28;85076;-92
2021/06/17 00:33:56;;;;;;;5.15;4.00;;;26.00;71.30;25.80;99072.00;;;;337334;28;91732;-93
2021/06/17 00:34:09;;;;;;;5.20;3.92;;;26.00;71.30;25.80;99062.00;;;;337672;28;83763;-93
2021/06/17 00:34:21;;;;;;;4.00;3.53;;;26.00;71.40;25.80;99067.00;;;;337282;28;91510;-92
2021/06/17 00:34:33;;;;;;;5.20;3.60;;;26.00;71.50;25.80;99059.00;;;;337628;28;85721;-91
2021/06/17 00:34:45;;;;;;;4.80;3.70;;;26.00;71.40;25.80;99067.00;;;;336469;28;91739;-93
2021/06/17 00:34:56;;;;;;;4.97;3.65;;;26.00;71.40;25.80;99071.00;;;;334778;29;84950;-91
2021/06/17 00:35:09;;;;;;;3.83;3.40;;;26.00;71.50;25.70;99060.00;;;;333881;29;92077;-92
2021/06/17 00:35:25;;;;;;;3.85;3.45;;;26.00;71.60;25.70;99062.00;;;;333839;29;84363;-92
2021/06/17 00:35:37;;;;;;;4.85;3.78;;;25.90;71.60;25.60;99067.00;;;;335942;28;93524;-91
2021/06/17 00:35:49;;;;;;;5.32;3.72;;;25.90;71.60;25.70;99072.00;;;;339093;28;84530;-92
2021/06/17 00:36:01;;;;;;;4.60;3.78;;;26.00;71.60;25.60;99065.00;;;;337372;28;91863;-92
2021/06/17 00:36:13;;;;;;;4.30;3.90;;;26.00;71.60;25.70;99065.00;;;;337524;28;84634;-93
2021/06/17 00:36:25;;;;;;;3.72;3.40;;;26.00;71.60;25.70;99074.00;;;;337387;28;91884;-91
2021/06/17 00:36:38;;;;;;;4.10;3.70;;;26.00;71.60;25.70;99070.00;;;;335110;29;84160;-91
2021/06/17 00:36:50;;;;;;;4.43;4.03;;;26.00;71.60;25.70;99069.00;;;;333423;29;91310;-91
2021/06/17 00:37:02;;;;;;;4.40;4.00;;;26.00;71.60;25.60;99067.00;;;;336445;28;83368;-92
2021/06/17 00:37:14;;;;;;;4.10;3.70;;;26.00;71.60;25.70;99071.00;;;;336123;28;92056;-92
2021/06/17 00:37:26;;;;;;;4.15;3.75;;;26.00;71.60;25.70;99064.00;;;;337701;28;84046;-92
2021/06/17 00:37:38;;;;;;;4.30;3.90;;;26.00;71.70;25.80;99067.00;;;;336009;28;93069;-92
2021/06/17 00:37:50;;;;;;;4.13;3.67;;;26.00;71.70;25.70;99071.00;;;;335893;28;83958;-92
2021/06/17 00:38:03;;;;;;;4.03;3.63;;;26.00;71.60;25.70;99068.00;;;;334754;29;91969;-92
2021/06/17 00:38:15;;;;;;;4.20;3.80;;;26.00;71.60;25.60;99064.00;;;;336165;28;84960;-91
2021/06/17 00:38:27;;;;;;;4.03;3.67;;;25.90;71.60;25.50;99073.00;;;;334808;29;91413;-91
2021/06/17 00:38:39;;;;;;;4.38;3.90;;;26.00;71.60;25.60;99075.00;;;;338894;28;83347;-91
2021/06/17 00:38:50;;;;;;;5.18;4.00;;;26.00;71.60;25.70;99066.00;;;;335959;28;91944;-91
2021/06/17 00:39:07;;;;;;;5.10;3.72;;;26.00;71.60;25.80;99075.00;;;;337768;28;85232;-92
2021/06/17 00:39:19;;;;;;;5.63;4.05;;;26.00;71.70;25.70;99082.00;;;;337260;28;92354;-91
2021/06/17 00:39:31;;;;;;;5.28;4.13;;;26.00;71.80;25.80;99082.00;;;;335088;29;84153;-91
2021/06/17 00:39:43;;;;;;;7.40;3.88;;;26.00;71.70;25.70;99083.00;;;;337468;28;89499;-92
2021/06/17 00:39:55;;;;;;;6.88;3.70;;;26.00;71.70;25.70;99075.00;;;;337724;28;82427;-92
2021/06/17 00:40:10;;;;;;;4.00;3.42;;;26.00;71.70;25.80;99084.00;;;;334831;29;91537;-92
2021/06/17 00:40:22;;;;;;;3.95;3.17;;;26.00;71.70;25.70;99085.00;;;;334995;29;83546;-92
2021/06/17 00:40:34;;;;;;;5.00;3.45;;;26.00;71.70;25.70;99083.00;;;;334762;29;92061;-91
2021/06/17 00:40:46;;;;;;;5.25;3.83;;;26.00;71.60;25.70;99085.00;;;;336710;28;84628;-91
2021/06/17 00:40:58;;;;;;;4.32;3.95;;;26.00;71.80;25.70;99086.00;;;;334790;28;91923;-91
2021/06/17 00:41:10;;;;;;;4.75;4.35;;;26.00;71.60;25.60;99078.00;;;;336507;28;85410;-91
2021/06/17 00:41:21;;;;;;;4.70;4.25;;;26.00;71.60;25.70;99079.00;;;;337288;28;92514;-92
2021/06/17 00:41:38;;;;;;;5.05;4.00;;;26.00;71.80;25.80;99078.00;;;;336436;28;83751;-92
2021/06/17 00:41:49;;;;;;;4.57;3.53;;;26.00;72.30;25.90;99082.00;;;;336047;28;92147;-92
2021/06/17 00:42:01;;;;;;;4.47;3.72;;;26.00;71.80;25.80;99087.00;;;;335085;29;84927;-92
2021/06/17 00:42:13;;;;;;;5.60;4.03;;;26.00;71.70;25.70;99077.00;;;;334748;29;91851;-91
2021/06/17 00:42:26;;;;;;;5.95;4.15;;;26.00;71.70;25.60;99082.00;;;;339021;28;84659;-92
2021/06/17 00:42:39;;;;;;;4.32;3.92;;;26.00;71.70;25.70;99077.00;;;;337320;28;90244;-92
2021/06/17 00:42:52;;;;;;;4.68;4.03;;;25.90;71.70;25.70;99081.00;;;;340318;28;84922;-92
2021/06/17 00:43:04;;;;;;;4.70;4.05;;;25.90;71.90;25.70;99086.00;;;;337388;28;91115;-92
2021/06/17 00:43:16;;;;;;;5.10;3.90;;;25.90;71.80;25.70;99083.00;;;;337690;28;84834;-93
2021/06/17 00:43:28;;;;;;;4.72;3.72;;;26.00;71.80;25.70;99082.00;;;;337382;28;92002;-92
2021/06/17 00:43:40;;;;;;;3.55;3.25;;;25.90;71.70;25.60;99086.00;;;;335937;28;83958;-92
2021/06/17 00:43:52;;;;;;;3.65;3.30;;;26.00;71.80;25.60;99080.00;;;;337429;28;90574;-92
2021/06/17 00:44:04;;;;;;;3.85;3.42;;;26.00;71.80;25.70;99082.00;;;;336475;28;83384;-92
2021/06/17 00:44:16;;;;;;;5.50;3.78;;;26.00;71.80;25.80;99083.00;;;;336022;28;91953;-92
2021/06/17 00:44:28;;;;;;;5.15;3.90;;;26.00;71.70;25.80;99085.00;;;;335160;29;83730;-92
2021/06/17 00:44:40;;;;;;;4.22;3.45;;;26.00;71.80;25.80;99080.00;;;;335025;28;91021;-91
2021/06/17 00:44:52;;;;;;;4.00;3.53;;;26.00;71.80;25.80;99086.00;;;;335143;29;84925;-91
2021/06/17 00:45:11;;;;;;;4.10;3.60;;;26.00;71.80;25.60;99083.00;;;;336092;28;90245;-92
2021/06/17 00:45:29;;;;;;;4.53;4.03;;;26.00;71.80;25.70;99077.00;;;;336396;28;84078;-91
2021/06/17 00:45:43;;;;;;;5.30;4.15;;;26.00;71.70;25.70;99085.00;;;;336009;28;92127;-92
2021/06/17 00:45:55;;;;;;;8.55;4.03;;;26.00;71.90;25.60;99084.00;;;;335171;29;84076;-91
2021/06/17 00:46:08;;;;;;;8.63;3.95;;;26.00;71.70;25.70;99085.00;;;;335987;28;91853;-91
2021/06/17 00:46:20;;;;;;;4.15;3.40;;;26.00;71.70;25.60;99081.00;;;;335154;29;83733;-93
2021/06/17 00:46:33;;;;;;;4.30;3.47;;;26.00;71.70;25.70;99083.00;;;;337203;28;92100;-91
2021/06/17 00:46:45;;;;;;;6.15;3.60;;;26.00;71.70;25.80;99083.00;;;;337348;28;84713;-91
2021/06/17 00:46:57;;;;;;;5.05;3.65;;;26.00;71.70;25.80;99076.00;;;;335784;28;91383;-92
2021/06/17 00:47:10;;;;;;;4.10;3.67;;;26.00;71.70;25.90;99081.00;;;;337736;28;83279;-92
2021/06/17 00:47:22;;;;;;;4.45;3.70;;;26.00;71.70;25.90;99074.00;;;;336056;28;92226;-92
2021/06/17 00:47:33;;;;;;;4.75;3.67;;;26.00;71.70;25.90;99082.00;;;;336337;28;85060;-92
2021/06/17 00:47:45;;;;;;;4.43;3.90;;;26.00;71.70;25.90;99075.00;;;;335843;28;91253;-91
2021/06/17 00:47:57;;;;;;;4.35;3.85;;;26.00;71.70;25.80;99083.00;;;;336621;28;82401;-91
2021/06/17 00:48:10;;;;;;;4.28;3.50;;;26.00;71.60;25.70;99078.00;;;;338573;28;91954;-91
2021/06/17 00:48:22;;;;;;;5.65;3.58;;;26.00;71.70;25.70;99076.00;;;;334946;29;82824;-92
2021/06/17 00:48:34;;;;;;;6.63;3.63;;;26.00;71.60;25.60;99077.00;;;;337310;28;91383;-92
2021/06/17 00:48:46;;;;;;;7.20;3.47;;;26.00;71.60;25.60;99077.00;;;;339173;28;82341;-92
2021/06/17 00:48:58;;;;;;;6.32;3.85;;;26.00;72.20;25.80;99077.00;;;;337289;28;91920;-92
2021/06/17 00:49:10;;;;;;;5.70;3.88;;;26.00;72.00;25.80;99075.00;;;;335242;29;82436;-91
2021/06/17 00:49:21;;;;;;;5.50;3.47;;;26.00;71.80;25.90;99071.00;;;;337338;28;92343;-92
2021/06/17 00:49:33;;;;;;;4.90;3.30;;;26.00;71.70;25.90;99077.00;;;;339035;28;83435;-91
2021/06/17 00:49:45;;;;;;;5.97;3.63;;;26.00;71.70;25.90;99069.00;;;;339027;28;91948;-92
2021/06/17 00:49:57;;;;;;;4.78;3.80;;;26.00;71.70;25.90;99071.00;;;;337914;28;83627;-91
2021/06/17 00:50:11;;;;;;;3.80;3.50;;;26.00;71.80;25.90;99072.00;;;;337162;28;92519;-93
2021/06/17 00:50:31;;;;;;;3.88;3.58;;;26.00;71.80;26.00;99070.00;;;;336381;28;85059;-91
2021/06/17 00:50:48;;;;;;;4.05;3.70;;;26.00;71.70;25.90;99073.00;;;;335260;28;92171;-91
2021/06/17 00:51:00;;;;;;;4.30;3.50;;;26.00;71.60;26.00;99081.00;;;;337681;28;83585;-91
2021/06/17 00:51:12;;;;;;;4.32;3.40;;;26.00;72.20;26.00;99077.00;;;;333557;29;89498;-92
2021/06/17 00:51:24;;;;;;;3.67;3.38;;;26.10;71.70;25.90;99065.00;;;;337712;28;85217;-92
2021/06/17 00:51:36;;;;;;;4.20;3.63;;;26.10;71.70;25.90;99065.00;;;;337222;28;91991;-92
2021/06/17 00:51:48;;;;;;;5.38;3.72;;;26.10;71.70;25.90;99077.00;;;;336495;28;82445;-92
2021/06/17 00:52:02;;;;;;;4.97;3.50;;;26.10;71.60;25.90;99068.00;;;;336051;28;91933;-92
2021/06/17 00:52:14;;;;;;;4.18;3.70;;;26.10;71.60;25.90;99066.00;;;;335145;29;83867;-92
2021/06/17 00:52:26;;;;;;;4.35;3.95;;;26.10;71.60;25.90;99071.00;;;;337263;28;92895;-92
2021/06/17 00:52:38;;;;;;;4.30;3.90;;;26.10;71.70;26.00;99067.00;;;;337049;28;83833;-92
2021/06/17 00:52:50;;;;;;;4.22;3.83;;;26.10;71.60;26.00;99072.00;;;;335250;28;92137;-91
2021/06/17 00:53:02;;;;;;;4.20;3.78;;;26.10;71.60;25.90;99071.00;;;;337741;28;84838;-91
2021/06/17 00:53:16;;;;;;;4.18;3.78;;;26.10;71.50;25.80;99071.00;;;;335820;28;93128;-92
2021/06/17 00:53:31;;;;;;;4.65;3.75;;;26.10;71.50;25.90;99069.00;;;;337695;28;83888;-91
2021/06/17 00:53:43;;;;;;;4.20;3.33;;;26.10;71.50;25.90;99069.00;;;;337967;28;91848;-92
2021/06/17 00:53:55;;;;;;;3.78;3.17;;;26.10;71.60;26.00;99068.00;;;;336194;28;83504;-92
2021/06/17 00:54:07;;;;;;;3.85;3.10;;;26.10;72.20;25.90;99076.00;;;;333468;29;92522;-91
2021/06/17 00:54:34;;;;;;;4.68;3.47;;;26.10;71.50;26.00;99070.00;;;;335205;29;83445;-92
2021/06/17 00:54:46;;;;;;;5.78;3.67;;;26.10;71.50;26.00;99068.00;;;;337308;28;92263;-92
2021/06/17 00:54:58;;;;;;;5.25;3.30;;;26.10;71.50;26.10;99067.00;;;;337514;28;83585;-92
2021/06/17 00:55:12;;;;;;;4.47;3.40;;;26.10;71.50;26.00;99071.00;;;;334766;29;91459;-92
2021/06/17 00:55:24;;;;;;;5.93;3.60;;;26.10;71.30;26.00;99073.00;;;;335139;29;83621;-93
2021/06/17 00:55:38;;;;;;;7.30;3.60;;;26.10;71.30;25.90;99069.00;;;;334458;28;91596;-92
2021/06/17 00:55:50;;;;;;;6.35;3.85;;;26.10;71.40;25.90;99073.00;;;;337593;28;85661;-91
2021/06/17 00:56:03;;;;;;;5.65;3.95;;;26.10;71.40;26.00;99069.00;;;;337392;28;91765;-92
2021/06/17 00:56:15;;;;;;;4.43;3.80;;;26.10;71.40;26.00;99073.00;;;;335898;28;84110;-92
2021/06/17 00:56:27;;;;;;;3.80;3.50;;;26.10;71.60;25.80;99069.00;;;;334823;29;90829;-92
2021/06/17 00:56:39;;;;;;;5.50;3.80;;;26.10;71.60;25.70;99072.00;;;;336450;28;84457;-92